createdAt,value
2018-03-30T00:00:46.253Z,101721.69
2018-03-30T00:03:13.844Z,101726.58
2018-03-30T00:05:41.561Z,101733.01
2018-03-30T00:08:09.199Z,101734.77
2018-03-30T00:10:42.375Z,101743.02
2018-03-30T00:13:10.028Z,101749.97
2018-03-30T00:15:37.743Z,101749.31
2018-03-30T00:18:05.391Z,101755.19
2018-03-30T00:20:33.102Z,101761.02
2018-03-30T00:23:00.803Z,101766.63
2018-03-30T00:25:28.485Z,101764.33
2018-03-30T00:27:56.120Z,101769.13
2018-03-30T00:30:23.850Z,101772.26
2018-03-30T00:32:51.508Z,101779.19
2018-03-30T00:35:19.199Z,101787.47
2018-03-30T00:37:46.890Z,101794.61
2018-03-30T00:40:14.551Z,101792.23
2018-03-30T00:42:42.236Z,101794.47
2018-03-30T00:45:09.868Z,101789.99
2018-03-30T00:47:37.546Z,101791.36
2018-03-30T00:50:05.189Z,101790.09
2018-03-30T00:52:32.917Z,101789.65
2018-03-30T00:55:00.617Z,101797.45
2018-03-30T00:57:28.331Z,101795.81
2018-03-30T00:59:56.028Z,101805.48
2018-03-30T01:02:23.713Z,101808.14
2018-03-30T01:04:51.367Z,101812.02
2018-03-30T01:07:19.108Z,101811.98
2018-03-30T01:09:46.770Z,101806.53
2018-03-30T01:12:14.484Z,101814.92
2018-03-30T01:14:42.178Z,101806.10
2018-03-30T01:17:09.894Z,101802.78
2018-03-30T01:19:37.574Z,101809.38
2018-03-30T01:22:05.266Z,101801.17
2018-03-30T01:24:32.902Z,101802.17
2018-03-30T01:27:00.596Z,101803.11
2018-03-30T01:29:28.246Z,101800.53
2018-03-30T01:31:55.995Z,101799.45
2018-03-30T01:34:23.636Z,101804.42
2018-03-30T01:36:51.325Z,101791.84
2018-03-30T01:39:18.965Z,101798.56
2018-03-30T01:41:46.668Z,101799.06
2018-03-30T01:44:14.330Z,101801.25
2018-03-30T01:46:42.018Z,101800.70
2018-03-30T01:49:09.671Z,101807.11
2018-03-30T01:51:37.448Z,101816.12
2018-03-30T01:54:05.090Z,101810.27
2018-03-30T01:56:32.828Z,101814.91
2018-03-30T01:59:00.510Z,101824.11
2018-03-30T02:01:28.286Z,101823.74
2018-03-30T02:03:55.929Z,101830.59
2018-03-30T02:06:23.657Z,101833.40
2018-03-30T02:08:51.312Z,101843.55
2018-03-30T02:11:19.053Z,101850.58
2018-03-30T02:13:46.728Z,101853.33
2018-03-30T02:16:14.386Z,101867.35
2018-03-30T02:18:42.087Z,101869.02
2018-03-30T02:21:09.739Z,101882.53
2018-03-30T02:23:37.474Z,101876.59
2018-03-30T02:26:05.196Z,101875.08
2018-03-30T02:28:32.889Z,101882.75
2018-03-30T02:31:00.596Z,101890.77
2018-03-30T02:33:28.277Z,101889.77
2018-03-30T02:35:55.937Z,101896.31
2018-03-30T02:38:23.625Z,101898.98
2018-03-30T02:40:51.288Z,101893.91
2018-03-30T02:43:19.051Z,101889.55
2018-03-30T02:45:46.725Z,101890.52
2018-03-30T02:48:14.440Z,101883.45
2018-03-30T02:50:42.096Z,101888.77
2018-03-30T02:53:09.847Z,101879.70
2018-03-30T02:55:37.499Z,101847.44
2018-03-30T02:58:05.221Z,101841.66
2018-03-30T03:00:32.889Z,101835.75
2018-03-30T03:03:00.923Z,101831.94
2018-03-30T03:05:28.587Z,101836.20
2018-03-30T03:07:56.325Z,101843.03
2018-03-30T03:10:24.021Z,101837.55
2018-03-30T03:12:51.708Z,101839.33
2018-03-30T03:15:19.405Z,101844.47
2018-03-30T03:17:47.131Z,101849.47
2018-03-30T03:20:14.861Z,101857.66
2018-03-30T03:22:42.586Z,101854.22
2018-03-30T03:25:10.228Z,101856.81
2018-03-30T03:27:37.918Z,101847.22
2018-03-30T03:30:05.635Z,101847.42
2018-03-30T03:32:33.362Z,101848.77
2018-03-30T03:35:01.125Z,101849.47
2018-03-30T03:37:28.868Z,101854.11
2018-03-30T03:39:56.562Z,101863.73
2018-03-30T03:42:24.288Z,101861.56
2018-03-30T03:44:51.955Z,101865.09
2018-03-30T03:47:19.682Z,101859.97
2018-03-30T03:49:47.353Z,101852.69
2018-03-30T03:52:15.071Z,101845.05
2018-03-30T03:54:42.702Z,101841.84
2018-03-30T03:57:10.333Z,101855.28
2018-03-30T03:59:38.054Z,101850.19
2018-03-30T04:02:05.746Z,101849.73
2018-03-30T04:04:33.474Z,101321.39
2018-03-30T04:07:01.167Z,101304.16
2018-03-30T04:09:28.857Z,101271.98
2018-03-30T04:11:56.500Z,101221.50
2018-03-30T04:14:24.232Z,101052.42
2018-03-30T04:16:51.876Z,101009.63
2018-03-30T04:19:19.580Z,100950.84
2018-03-30T04:21:47.232Z,100913.88
2018-03-30T04:24:14.980Z,100890.61
2018-03-30T04:26:42.612Z,100838.27
2018-03-30T04:29:10.325Z,100821.75
2018-03-30T04:31:38.008Z,100807.70
2018-03-30T04:34:05.738Z,100806.33
2018-03-30T04:36:33.421Z,100806.23
2018-03-30T04:39:01.132Z,100819.47
2018-03-30T04:41:28.780Z,100727.66
2018-03-30T04:43:56.497Z,100728.98
2018-03-30T04:46:24.191Z,100734.77
2018-03-30T04:48:51.882Z,100736.34
2018-03-30T04:51:19.516Z,100734.34
2018-03-30T04:53:47.201Z,100743.22
2018-03-30T04:56:14.855Z,100741.47
2018-03-30T04:58:42.552Z,100736.88
2018-03-30T05:01:10.246Z,100743.91
2018-03-30T05:03:37.930Z,100748.59
2018-03-30T05:06:05.588Z,100760.96
2018-03-30T05:08:33.268Z,100770.44
2018-03-30T05:11:00.915Z,100771.54
2018-03-30T05:13:28.671Z,100781.44
2018-03-30T05:15:56.386Z,100793.25
2018-03-30T05:18:24.075Z,100802.16
2018-03-30T05:20:51.743Z,100826.48
2018-03-30T05:23:19.478Z,100840.25
2018-03-30T05:25:47.125Z,100846.64
2018-03-30T05:28:14.861Z,100864.95
2018-03-30T05:30:42.494Z,100881.92
2018-03-30T05:33:10.211Z,100884.14
2018-03-30T05:35:37.865Z,100895.11
2018-03-30T05:38:05.517Z,100909.02
2018-03-30T05:40:33.194Z,100915.67
2018-03-30T05:43:00.917Z,100931.59
2018-03-30T05:45:28.606Z,100938.72
2018-03-30T05:47:56.274Z,100953.20
2018-03-30T05:50:23.995Z,100972.19
2018-03-30T05:52:51.675Z,101004.58
2018-03-30T05:55:19.374Z,101021.09
2018-03-30T05:57:47.025Z,101037.59
2018-03-30T06:00:14.706Z,101069.14
2018-03-30T06:02:42.372Z,101085.98
2018-03-30T06:05:10.044Z,101116.92
2018-03-30T06:07:37.682Z,101141.36
2018-03-30T06:10:05.414Z,101162.52
2018-03-30T06:12:33.090Z,101188.05
2018-03-30T06:15:00.864Z,101206.53
2018-03-30T06:17:28.537Z,101240.67
2018-03-30T06:19:56.252Z,101278.38
2018-03-30T06:22:23.902Z,101320.37
2018-03-30T06:24:51.597Z,101389.67
2018-03-30T06:27:19.233Z,101477.22
2018-03-30T06:29:46.968Z,101576.45
2018-03-30T06:32:14.641Z,101701.00
2018-03-30T06:34:42.340Z,101846.52
2018-03-30T06:37:10.001Z,101980.03
2018-03-30T06:39:37.694Z,102014.21
2018-03-30T06:42:05.406Z,102028.27
2018-03-30T06:44:33.111Z,102038.09
2018-03-30T06:47:00.826Z,102050.05
2018-03-30T06:49:28.511Z,102051.89
2018-03-30T06:51:56.207Z,102057.40
2018-03-30T06:54:23.915Z,102047.59
2018-03-30T06:56:51.570Z,102034.73
2018-03-30T06:59:19.337Z,102021.62
2018-03-30T07:01:47.042Z,102008.81
2018-03-30T07:04:14.789Z,101993.78
2018-03-30T07:06:42.518Z,101983.30
2018-03-30T07:09:10.268Z,101974.56
2018-03-30T07:11:37.983Z,101964.78
2018-03-30T07:14:05.730Z,101961.28
2018-03-30T07:16:33.403Z,101964.91
2018-03-30T07:19:01.127Z,101967.33
2018-03-30T07:21:28.849Z,101963.47
2018-03-30T07:23:56.531Z,101966.90
2018-03-30T07:26:24.238Z,101967.73
2018-03-30T07:28:52.230Z,101968.22
2018-03-30T07:31:19.968Z,101958.36
2018-03-30T07:33:47.675Z,101958.83
2018-03-30T07:36:15.427Z,101961.30
2018-03-30T07:38:43.147Z,101962.47
2018-03-30T07:41:10.907Z,101956.84
2018-03-30T07:43:38.619Z,101948.52
2018-03-30T07:46:06.365Z,101945.56
2018-03-30T07:48:34.071Z,101939.80
2018-03-30T07:51:01.842Z,101943.54
2018-03-30T07:53:29.553Z,101937.47
2018-03-30T07:55:57.315Z,101934.44
2018-03-30T07:58:25.035Z,101935.39
2018-03-30T08:00:52.774Z,101943.30
2018-03-30T08:03:20.478Z,101961.48
2018-03-30T08:05:48.215Z,101979.97
2018-03-30T08:08:15.914Z,102025.60
2018-03-30T08:10:43.649Z,102127.12
2018-03-30T08:13:11.330Z,101436.14
2018-03-30T08:15:39.026Z,101324.70
2018-03-30T08:18:06.740Z,101246.42
2018-03-30T08:20:34.523Z,101213.42
2018-03-30T08:23:02.243Z,101182.55
2018-03-30T08:25:30.028Z,101173.70
2018-03-30T08:27:57.766Z,101164.90
2018-03-30T08:30:25.506Z,101135.53
2018-03-30T08:32:53.229Z,101117.02
2018-03-30T08:35:20.986Z,101111.34
2018-03-30T08:37:48.714Z,101102.39
2018-03-30T08:40:16.486Z,101110.27
2018-03-30T08:42:44.167Z,101099.63
2018-03-30T08:45:11.917Z,101086.49
2018-03-30T08:47:39.638Z,101093.12
2018-03-30T08:50:07.382Z,101082.50
2018-03-30T08:52:35.056Z,101079.49
2018-03-30T08:55:02.763Z,101080.16
2018-03-30T08:57:30.531Z,101080.28
2018-03-30T08:59:58.204Z,101079.56
2018-03-30T09:02:25.920Z,101072.42
2018-03-30T09:04:53.628Z,101053.50
2018-03-30T09:07:21.363Z,101046.58
2018-03-30T09:09:49.070Z,101029.25
2018-03-30T09:12:16.809Z,101017.53
2018-03-30T09:14:44.505Z,101019.23
2018-03-30T09:17:12.298Z,101016.36
2018-03-30T09:19:40.031Z,101007.00
2018-03-30T09:22:07.755Z,100890.75
2018-03-30T09:24:35.546Z,100892.84
2018-03-30T09:27:03.330Z,100895.23
2018-03-30T09:29:31.056Z,100892.69
2018-03-30T09:31:58.806Z,100894.78
2018-03-30T09:34:26.517Z,100881.91
2018-03-30T09:36:54.272Z,100896.03
2018-03-30T09:39:21.975Z,100890.43
2018-03-30T09:41:49.730Z,100869.24
2018-03-30T09:44:17.436Z,100875.09
2018-03-30T09:46:45.128Z,100884.42
2018-03-30T09:49:12.818Z,100871.21
2018-03-30T09:51:40.523Z,100873.41
2018-03-30T09:54:08.184Z,100871.07
2018-03-30T09:56:35.880Z,100861.94
2018-03-30T09:59:03.553Z,100857.36
2018-03-30T10:01:31.320Z,100852.26
2018-03-30T10:03:59.059Z,100835.16
2018-03-30T10:06:26.765Z,100836.52
2018-03-30T10:08:54.430Z,100837.88
2018-03-30T10:11:22.330Z,100826.75
2018-03-30T10:13:50.018Z,100828.11
2018-03-30T10:16:17.723Z,100831.85
2018-03-30T10:18:45.398Z,100826.20
2018-03-30T10:21:13.118Z,100824.37
2018-03-30T10:23:40.790Z,100823.33
2018-03-30T10:26:08.476Z,100815.92
2018-03-30T10:28:36.126Z,100814.36
2018-03-30T10:31:03.821Z,100814.18
2018-03-30T10:33:32.430Z,100816.61
2018-03-30T10:36:00.128Z,100809.85
2018-03-30T10:38:27.886Z,100798.09
2018-03-30T10:40:55.534Z,100797.20
2018-03-30T10:43:23.232Z,100790.90
2018-03-30T10:45:50.918Z,100770.81
2018-03-30T10:48:18.595Z,100765.71
2018-03-30T10:50:46.257Z,100753.70
2018-03-30T10:53:13.958Z,100807.25
2018-03-30T10:55:41.591Z,100742.78
2018-03-30T10:58:09.322Z,100812.47
2018-03-30T11:00:36.979Z,100702.88
2018-03-30T11:03:04.674Z,100681.61
2018-03-30T11:05:32.310Z,100671.64
2018-03-30T11:07:59.980Z,100671.61
2018-03-30T11:10:27.602Z,100678.17
2018-03-30T11:12:55.298Z,100664.62
2018-03-30T11:15:22.940Z,100668.19
2018-03-30T11:17:50.646Z,100665.43
2018-03-30T11:20:18.298Z,100655.23
2018-03-30T11:22:45.978Z,100655.02
2018-03-30T11:25:13.651Z,100663.39
2018-03-30T11:27:41.318Z,100658.92
2018-03-30T11:30:08.959Z,100641.26
2018-03-30T11:32:36.625Z,100641.70
2018-03-30T11:35:04.235Z,100636.76
2018-03-30T11:37:31.910Z,100630.67
2018-03-30T11:39:59.550Z,100630.02
2018-03-30T11:42:27.247Z,100628.50
2018-03-30T11:44:54.885Z,100617.94
2018-03-30T11:47:22.596Z,100600.05
2018-03-30T11:49:50.251Z,100601.44
2018-03-30T11:52:17.990Z,100597.12
2018-03-30T11:54:45.702Z,100608.53
2018-03-30T11:57:13.381Z,100596.91
2018-03-30T11:59:41.110Z,100588.31
2018-03-30T12:02:08.855Z,100589.69
2018-03-30T12:04:36.530Z,100589.84
2018-03-30T12:07:04.311Z,100580.09
2018-03-30T12:09:31.969Z,100583.72
2018-03-30T12:11:59.678Z,100575.84
2018-03-30T12:14:27.356Z,100571.58
2018-03-30T12:16:55.090Z,100578.11
2018-03-30T12:19:22.790Z,100575.22
2018-03-30T12:21:50.491Z,100572.45
2018-03-30T12:24:18.254Z,100576.04
2018-03-30T12:26:45.966Z,100567.79
2018-03-30T12:29:13.710Z,100578.16
2018-03-30T12:31:41.422Z,100566.82
2018-03-30T12:34:09.151Z,100564.66
2018-03-30T12:36:36.837Z,100532.94
2018-03-30T12:39:04.621Z,100530.17
2018-03-30T12:41:32.305Z,100528.46
2018-03-30T12:44:00.066Z,100529.20
2018-03-30T12:46:27.803Z,100524.10
2018-03-30T12:48:55.527Z,100512.19
2018-03-30T12:51:23.233Z,100507.77
2018-03-30T12:53:50.976Z,100511.81
2018-03-30T12:56:18.703Z,100510.50
2018-03-30T12:58:46.435Z,100498.97
2018-03-30T13:01:14.170Z,100486.41
2018-03-30T13:03:41.896Z,100478.95
2018-03-30T13:06:09.620Z,100473.38
2018-03-30T13:08:37.370Z,100471.16
2018-03-30T13:11:05.086Z,100464.44
2018-03-30T13:13:34.720Z,100452.97
2018-03-30T13:16:02.834Z,100452.88
2018-03-30T13:18:30.921Z,100447.78
2018-03-30T13:20:59.458Z,100440.53
2018-03-30T13:23:27.274Z,100433.41
2018-03-30T13:25:55.425Z,100409.47
2018-03-30T13:28:23.222Z,100395.68
2018-03-30T13:30:52.078Z,100408.14
2018-03-30T13:33:20.559Z,100416.67
2018-03-30T13:35:48.461Z,100424.55
2018-03-30T13:38:16.756Z,100425.02
2018-03-30T13:40:44.615Z,100416.67
2018-03-30T13:43:13.447Z,100402.59
2018-03-30T13:45:41.945Z,100401.09
2018-03-30T13:48:09.870Z,100393.91
2018-03-30T13:53:36.672Z,100402.18
2018-03-30T13:56:06.866Z,100400.76
2018-03-30T13:58:38.123Z,100399.78
2018-03-30T14:01:21.503Z,100394.36
2018-03-30T14:06:50.691Z,100384.08
2018-03-30T14:09:27.970Z,100386.20
2018-03-30T14:11:58.270Z,100379.19
2018-03-30T14:14:26.030Z,100375.41
2018-03-30T14:16:56.478Z,100374.25
2018-03-30T14:19:27.809Z,100374.51
2018-03-30T14:21:55.532Z,100363.59
2018-03-30T14:24:24.120Z,100344.23
2018-03-30T14:30:03.135Z,100354.45
2018-03-30T14:32:36.522Z,100360.09
2018-03-30T14:35:15.706Z,100366.84
2018-03-30T14:40:45.144Z,100356.86
2018-03-30T14:43:34.938Z,100362.61
2018-03-30T14:46:21.531Z,100362.98
2018-03-30T14:48:50.863Z,100364.20
2018-03-30T14:51:39.354Z,100358.64
2018-03-30T14:54:18.144Z,100350.59
2018-03-30T14:56:50.751Z,100339.94
2018-03-30T14:59:28.547Z,100347.45
2018-03-30T15:02:02.182Z,100341.81
2018-03-30T15:04:41.440Z,100344.55
2018-03-30T15:07:12.858Z,100339.81
2018-03-30T15:09:45.401Z,100342.52
2018-03-30T15:18:20.922Z,100350.78
2018-03-30T15:23:49.676Z,100349.38
2018-03-30T15:29:33.453Z,100333.08
2018-03-30T15:32:11.671Z,100329.78
2018-03-30T15:34:40.982Z,100328.80
2018-03-30T15:37:16.546Z,100339.09
2018-03-30T15:39:46.115Z,100338.29
2018-03-30T15:42:16.812Z,100327.91
2018-03-30T15:44:45.243Z,100322.95
2018-03-30T15:47:14.913Z,100315.36
2018-03-30T15:49:42.722Z,100319.53
2018-03-30T15:52:10.510Z,100328.86
2018-03-30T15:54:38.251Z,100341.83
2018-03-30T15:57:06.019Z,100336.69
2018-03-30T15:59:33.843Z,100336.58
2018-03-30T16:02:01.720Z,100347.30
2018-03-30T16:04:29.613Z,100349.47
2018-03-30T16:06:57.531Z,100348.52
2018-03-30T16:09:28.704Z,100337.78
2018-03-30T16:11:57.876Z,100343.88
2018-03-30T16:14:25.595Z,100346.32
2018-03-30T16:16:53.362Z,100349.06
2018-03-30T16:19:20.607Z,100349.66
2018-03-30T16:21:47.756Z,100351.95
2018-03-30T16:24:14.904Z,100350.68
2018-03-30T16:26:42.119Z,100349.58
2018-03-30T16:29:09.269Z,100353.27
2018-03-30T16:31:36.482Z,100352.78
2018-03-30T16:34:03.693Z,100355.64
2018-03-30T16:36:30.874Z,100358.76
2018-03-30T16:38:58.355Z,100366.62
2018-03-30T16:41:25.518Z,100369.14
2018-03-30T16:43:52.746Z,100359.05
2018-03-30T16:46:19.910Z,100356.20
2018-03-30T16:48:47.070Z,100346.63
2018-03-30T16:51:14.261Z,100348.09
2018-03-30T16:53:41.386Z,100339.13
2018-03-30T16:56:08.577Z,100335.63
2018-03-30T16:58:35.833Z,100340.98
2018-03-30T17:01:03.174Z,100341.26
2018-03-30T17:03:30.301Z,100342.33
2018-03-30T17:05:57.470Z,100339.20
2018-03-30T17:08:24.670Z,100333.55
2018-03-30T17:10:51.879Z,100334.53
2018-03-30T17:13:19.112Z,100333.67
2018-03-30T17:15:46.321Z,100349.42
2018-03-30T17:18:13.482Z,100342.92
2018-03-30T17:20:40.671Z,100349.28
2018-03-30T17:23:07.833Z,100351.33
2018-03-30T17:25:35.010Z,100347.39
2018-03-30T17:28:02.236Z,100350.79
2018-03-30T17:30:29.670Z,100345.28
2018-03-30T17:32:56.878Z,100350.00
2018-03-30T17:35:24.241Z,100367.03
2018-03-30T17:37:51.402Z,100377.56
2018-03-30T17:40:19.464Z,100384.65
2018-03-30T17:42:46.892Z,100379.45
2018-03-30T17:45:14.115Z,100382.13
2018-03-30T17:47:41.270Z,100373.92
2018-03-30T17:50:08.447Z,100388.23
2018-03-30T17:52:35.638Z,100382.87
2018-03-30T17:55:02.840Z,100390.23
2018-03-30T17:57:30.029Z,100383.69
2018-03-30T17:59:57.700Z,100396.06
2018-03-30T18:02:25.473Z,100400.23
2018-03-30T18:04:52.647Z,100402.47
2018-03-30T18:07:19.881Z,100384.92
2018-03-30T18:09:47.074Z,100387.13
2018-03-30T18:12:14.273Z,100389.20
2018-03-30T18:14:41.458Z,100377.03
2018-03-30T18:17:08.631Z,100391.30
2018-03-30T18:19:35.807Z,100396.30
2018-03-30T18:22:03.009Z,100399.44
2018-03-30T18:24:30.206Z,100419.70
2018-03-30T18:26:57.447Z,100414.55
2018-03-30T18:29:24.615Z,100408.48
2018-03-30T18:31:51.827Z,100460.23
2018-03-30T18:34:19.005Z,100457.53
2018-03-30T18:36:46.190Z,100429.29
2018-03-30T18:39:13.389Z,100440.87
2018-03-30T18:41:40.543Z,100440.91
2018-03-30T18:44:07.691Z,100441.39
2018-03-30T18:46:34.845Z,100379.43
2018-03-30T18:49:02.012Z,100390.96
2018-03-30T18:51:29.231Z,100404.42
2018-03-30T18:53:56.405Z,100477.52
2018-03-30T18:56:24.322Z,100447.14
2018-03-30T18:58:51.475Z,100403.18
2018-03-30T19:01:18.729Z,100416.54
2018-03-30T19:03:45.868Z,100415.21
2018-03-30T19:06:13.054Z,100409.78
2018-03-30T19:08:40.235Z,100410.47
2018-03-30T19:11:07.420Z,100413.67
2018-03-30T19:13:34.597Z,100422.32
2018-03-30T19:16:01.773Z,100413.98
2018-03-30T19:18:28.945Z,100423.50
2018-03-30T19:20:56.128Z,100419.72
2018-03-30T19:23:23.301Z,100417.45
2018-03-30T19:25:50.463Z,100418.64
2018-03-30T19:28:17.623Z,100418.70
2018-03-30T19:30:44.814Z,100414.97
2018-03-30T19:33:12.103Z,100405.32
2018-03-30T19:35:39.297Z,100408.02
2018-03-30T19:38:06.560Z,100408.34
2018-03-30T19:40:33.696Z,100409.65
2018-03-30T19:43:00.934Z,100417.32
2018-03-30T19:45:28.090Z,100413.63
2018-03-30T19:47:55.257Z,100409.34
2018-03-30T19:50:22.440Z,100414.45
2018-03-30T19:52:49.609Z,100409.06
2018-03-30T19:55:16.745Z,100403.16
2018-03-30T19:57:43.936Z,100405.64
2018-03-30T20:00:11.174Z,100408.16
2018-03-30T20:02:38.363Z,100403.26
2018-03-30T20:05:05.521Z,100412.17
2018-03-30T20:07:32.688Z,100405.66
2018-03-30T20:09:59.846Z,100414.77
2018-03-30T20:12:27.051Z,100405.30
2018-03-30T20:14:54.266Z,100554.86
2018-03-30T20:17:21.448Z,100493.41
2018-03-30T20:19:48.578Z,100492.58
2018-03-30T20:22:15.800Z,100516.95
2018-03-30T20:24:42.941Z,100524.29
2018-03-30T20:27:10.140Z,100519.30
2018-03-30T20:29:37.335Z,100401.73
2018-03-30T20:32:04.486Z,100410.89
2018-03-30T20:34:31.645Z,100411.74
2018-03-30T20:36:58.807Z,100415.93
2018-03-30T20:39:25.970Z,100410.14
2018-03-30T20:41:53.126Z,100401.47
2018-03-30T20:44:20.243Z,100404.48
2018-03-30T20:46:48.846Z,100407.46
2018-03-30T20:49:16.103Z,100405.08
2018-03-30T20:51:43.254Z,100404.59
2018-03-30T20:54:10.405Z,100402.07
2018-03-30T20:56:37.532Z,100395.11
2018-03-30T20:59:04.753Z,100393.13
2018-03-30T21:01:31.993Z,100388.63
2018-03-30T21:03:59.190Z,100387.36
2018-03-30T21:06:26.362Z,100384.33
2018-03-30T21:08:53.542Z,100379.34
2018-03-30T21:11:20.737Z,100380.67
2018-03-30T21:13:47.994Z,100371.95
2018-03-30T21:16:15.180Z,100370.40
2018-03-30T21:18:42.422Z,100368.94
2018-03-30T21:21:10.065Z,100377.00
2018-03-30T21:23:37.323Z,100382.84
2018-03-30T21:26:04.581Z,100372.17
2018-03-30T21:28:31.838Z,100374.19
2018-03-30T21:30:59.015Z,100377.37
2018-03-30T21:33:26.243Z,100377.39
2018-03-30T21:35:53.392Z,100376.23
2018-03-30T21:38:20.670Z,100370.55
2018-03-30T21:40:47.931Z,100373.06
2018-03-30T21:43:15.159Z,100378.44
2018-03-30T21:45:42.437Z,100374.86
2018-03-30T21:48:09.615Z,100476.05
2018-03-30T21:50:36.751Z,100491.39
2018-03-30T21:53:03.961Z,100506.65
2018-03-30T21:55:31.105Z,100535.23
2018-03-30T21:57:58.296Z,100525.05
2018-03-30T22:00:25.440Z,100514.77
2018-03-30T22:02:52.589Z,100487.38
2018-03-30T22:05:19.858Z,100484.93
2018-03-30T22:07:47.118Z,100492.98
2018-03-30T22:10:14.302Z,100494.34
2018-03-30T22:12:41.566Z,100493.48
2018-03-30T22:15:13.100Z,100500.48
2018-03-30T22:17:40.268Z,100498.36
2018-03-30T22:20:07.462Z,100492.53
2018-03-30T22:22:34.671Z,100483.52
2018-03-30T22:25:01.822Z,100489.67
2018-03-30T22:27:29.026Z,100489.37
2018-03-30T22:29:56.201Z,100494.83
2018-03-30T22:32:23.454Z,100487.53
2018-03-30T22:34:50.635Z,100492.92
2018-03-30T22:37:17.797Z,100491.27
2018-03-30T22:39:44.994Z,100496.20
2018-03-30T22:42:12.167Z,100505.03
2018-03-30T22:44:39.367Z,100489.98
2018-03-30T22:47:06.523Z,100491.88
2018-03-30T22:49:34.659Z,100486.94
2018-03-30T22:52:01.808Z,100501.11
2018-03-30T22:54:28.973Z,100504.28
2018-03-30T22:56:56.197Z,100512.91
2018-03-30T22:59:23.440Z,100469.59
2018-03-30T23:01:50.631Z,100496.66
2018-03-30T23:04:17.982Z,100476.42
2018-03-30T23:06:45.229Z,100478.17
2018-03-30T23:09:12.390Z,100478.64
2018-03-30T23:11:39.554Z,100480.57
2018-03-30T23:14:06.702Z,100474.27
2018-03-30T23:16:33.869Z,100481.13
2018-03-30T23:19:01.018Z,100479.85
2018-03-30T23:21:28.190Z,100464.59
2018-03-30T23:23:55.373Z,100461.00
2018-03-30T23:26:22.553Z,100479.14
2018-03-30T23:28:49.704Z,100499.62
2018-03-30T23:31:16.882Z,100456.53
2018-03-30T23:33:44.045Z,100442.53
2018-03-30T23:36:11.262Z,100469.87
2018-03-30T23:38:38.435Z,100468.78
2018-03-30T23:41:05.631Z,100474.16
2018-03-30T23:43:32.816Z,100462.33
2018-03-30T23:45:59.988Z,100456.42
2018-03-30T23:48:27.182Z,100456.26
2018-03-30T23:50:55.315Z,100450.17
2018-03-30T23:53:22.457Z,100446.18
2018-03-30T23:55:49.620Z,100442.73
2018-03-30T23:58:16.783Z,100443.16
